Time;durP1;ratioP1;P1;durP2;ratioP2;P2;SDS_P1;SDS_P2;PMS_P1;PMS_P2;Temp;Humidity;BMP_temperature;BMP_pressure;BME280_temperature;BME280_humidity;BME280_pressure;Samples;Min_cycle;Max_cycle;Signal;HPM_P1;HPM_P2
2021/06/19 00:01:35;;;;;;;7.88;3.90;;;21.80;66.50;;;;;;5053221;28;20032;-50
2021/06/19 00:04:00;;;;;;;5.78;4.00;;;21.70;66.50;;;;;;5053954;28;20483;-50
2021/06/19 00:06:26;;;;;;;5.68;3.70;;;21.70;66.60;;;;;;5054282;28;20039;-50
2021/06/19 00:08:52;;;;;;;7.75;4.78;;;21.70;66.60;;;;;;5053772;28;20535;-50
2021/06/19 00:11:18;;;;;;;9.77;4.40;;;21.70;66.90;;;;;;5052779;28;20605;-50
2021/06/19 00:13:44;;;;;;;7.20;4.07;;;21.70;66.70;;;;;;5054155;28;20375;-50
2021/06/19 00:16:09;;;;;;;6.75;4.55;;;21.80;67.10;;;;;;5053916;28;20545;-50
2021/06/19 00:18:35;;;;;;;7.68;4.05;;;21.70;67.00;;;;;;5053674;28;20360;-50
2021/06/19 00:21:01;;;;;;;10.82;4.05;;;21.70;67.00;;;;;;5052394;28;20033;-50
2021/06/19 00:23:26;;;;;;;13.35;5.00;;;21.70;67.10;;;;;;5054081;28;20037;-50
2021/06/19 00:25:52;;;;;;;10.48;4.45;;;21.70;67.20;;;;;;5053635;28;20032;-50
2021/06/19 00:28:18;;;;;;;8.05;4.30;;;21.70;67.30;;;;;;5053650;28;20029;-50
2021/06/19 00:30:44;;;;;;;7.57;4.32;;;21.70;67.30;;;;;;5052930;28;20483;-50
2021/06/19 00:33:10;;;;;;;12.75;4.10;;;21.70;67.30;;;;;;5053582;28;20064;-50
2021/06/19 00:35:36;;;;;;;7.60;4.18;;;21.70;67.40;;;;;;5053352;28;20061;-50
2021/06/19 00:38:02;;;;;;;6.65;4.43;;;21.70;67.50;;;;;;5053091;28;20029;-50
2021/06/19 00:40:28;;;;;;;6.22;4.10;;;21.70;67.60;;;;;;5052584;28;20453;-50
2021/06/19 00:43:01;;;;;;;8.85;4.43;;;21.70;67.40;;;;;;5052918;28;20020;-50
2021/06/19 00:45:30;;;;;;;6.43;4.50;;;21.70;67.50;;;;;;5053474;28;20032;-50
2021/06/19 00:47:58;;;;;;;10.45;4.40;;;21.70;67.90;;;;;;5053324;28;20028;-49
2021/06/19 00:50:27;;;;;;;6.68;4.40;;;21.70;67.70;;;;;;5052014;28;20082;-50
2021/06/19 00:52:53;;;;;;;10.20;4.57;;;21.70;67.80;;;;;;5053096;28;20025;-50
2021/06/19 00:55:19;;;;;;;7.07;4.43;;;21.70;67.90;;;;;;5053489;28;20047;-50
2021/06/19 00:57:46;;;;;;;6.53;4.43;;;21.70;67.90;;;;;;5052888;28;20025;-50
2021/06/19 01:00:12;;;;;;;9.25;4.38;;;21.70;67.90;;;;;;5052371;28;20070;-50
2021/06/19 01:02:39;;;;;;;7.53;4.55;;;21.60;68.00;;;;;;5052612;28;20448;-51
2021/06/19 01:05:07;;;;;;;13.57;4.85;;;21.70;68.20;;;;;;5053116;28;20029;-50
2021/06/19 01:07:33;;;;;;;7.43;4.53;;;21.70;68.30;;;;;;5052825;28;20032;-50
2021/06/19 01:09:59;;;;;;;6.72;4.20;;;21.70;68.20;;;;;;5052624;28;20025;-50
2021/06/19 01:12:25;;;;;;;5.65;4.15;;;21.60;68.20;;;;;;5052202;28;20064;-50
2021/06/19 01:14:52;;;;;;;11.20;4.20;;;21.60;68.30;;;;;;5052685;28;20360;-50
2021/06/19 01:17:19;;;;;;;11.73;4.57;;;21.60;68.40;;;;;;5052067;28;20041;-50
2021/06/19 01:19:45;;;;;;;6.72;4.28;;;21.60;68.20;;;;;;5052468;28;20055;-50
2021/06/19 01:22:11;;;;;;;7.53;4.28;;;21.70;68.40;;;;;;5052206;28;20025;-50
2021/06/19 01:24:37;;;;;;;9.45;4.18;;;21.60;68.50;;;;;;5052858;28;20406;-50
2021/06/19 01:27:03;;;;;;;11.63;3.53;;;21.60;68.60;;;;;;5052531;28;20441;-50
2021/06/19 01:29:29;;;;;;;6.28;3.63;;;21.60;68.60;;;;;;5053052;28;20032;-50
2021/06/19 01:31:54;;;;;;;5.28;3.47;;;21.60;68.60;;;;;;5051633;28;20033;-50
2021/06/19 01:34:20;;;;;;;9.68;3.88;;;21.60;68.50;;;;;;5052680;28;20020;-50
2021/06/19 01:36:46;;;;;;;9.73;3.88;;;21.60;68.50;;;;;;5052931;28;20356;-50
2021/06/19 01:39:11;;;;;;;8.90;3.50;;;21.60;68.50;;;;;;5052399;28;20109;-50
2021/06/19 01:41:37;;;;;;;12.80;3.92;;;21.60;68.50;;;;;;5051943;28;20029;-50
2021/06/19 01:44:07;;;;;;;9.38;4.18;;;21.60;68.70;;;;;;5052431;28;20413;-50
2021/06/19 01:46:36;;;;;;;6.80;3.63;;;21.60;68.60;;;;;;5052351;28;20032;-50
2021/06/19 01:49:02;;;;;;;10.90;4.00;;;21.60;68.70;;;;;;5052275;28;20029;-50
2021/06/19 01:51:28;;;;;;;9.05;3.50;;;21.70;68.70;;;;;;5052027;28;20049;-50
2021/06/19 01:53:54;;;;;;;7.95;3.40;;;21.60;68.70;;;;;;5052296;28;20079;-50
2021/06/19 01:56:20;;;;;;;13.10;3.50;;;21.60;68.80;;;;;;5052501;28;20025;-50
2021/06/19 01:58:46;;;;;;;13.93;3.22;;;21.60;68.70;;;;;;5052395;28;20032;-50
2021/06/19 02:01:14;;;;;;;9.07;3.17;;;21.60;68.80;;;;;;5051262;28;20029;-50
2021/06/19 02:03:42;;;;;;;10.85;3.53;;;21.60;69.40;;;;;;5052537;28;20071;-50
2021/06/19 02:06:08;;;;;;;8.20;3.08;;;21.60;68.60;;;;;;5052289;28;20032;-50
2021/06/19 02:08:35;;;;;;;11.88;3.42;;;21.60;68.70;;;;;;5050774;28;20432;-50
2021/06/19 02:11:01;;;;;;;11.90;3.58;;;21.60;69.40;;;;;;5051640;28;20045;-50
2021/06/19 02:13:27;;;;;;;10.45;3.10;;;21.60;68.70;;;;;;5052151;28;20356;-50
2021/06/19 02:15:54;;;;;;;12.80;3.17;;;21.60;68.70;;;;;;5051995;28;20024;-50
2021/06/19 02:18:20;;;;;;;8.45;3.38;;;21.60;68.70;;;;;;5051767;28;20063;-50
2021/06/19 02:20:48;;;;;;;17.02;4.05;;;21.60;68.60;;;;;;5051471;28;20415;-50
2021/06/19 02:23:14;;;;;;;7.05;3.22;;;21.60;68.60;;;;;;5052059;28;20115;-50
2021/06/19 02:25:39;;;;;;;10.25;3.63;;;21.60;68.70;;;;;;5052073;28;20121;-51
2021/06/19 02:28:08;;;;;;;7.43;2.85;;;21.60;68.50;;;;;;5050637;28;20029;-50
2021/06/19 02:30:35;;;;;;;8.77;2.85;;;21.60;68.60;;;;;;5053038;28;20379;-50
2021/06/19 02:33:02;;;;;;;9.35;3.47;;;21.60;68.60;;;;;;5055776;28;20021;-50
2021/06/19 02:35:30;;;;;;;6.97;2.90;;;21.50;68.50;;;;;;5056208;28;20033;-50
2021/06/19 02:37:58;;;;;;;7.88;3.00;;;21.50;68.40;;;;;;5055664;28;20544;-50
2021/06/19 02:40:24;;;;;;;15.32;3.35;;;21.50;68.60;;;;;;5054807;28;20082;-50
2021/06/19 02:42:51;;;;;;;10.38;3.08;;;21.50;68.40;;;;;;5055595;28;20040;-51
2021/06/19 02:45:17;;;;;;;5.95;3.35;;;21.50;68.50;;;;;;5055753;28;20033;-50
2021/06/19 02:47:47;;;;;;;5.20;3.30;;;21.50;68.50;;;;;;5055519;28;20104;-50
2021/06/19 02:50:15;;;;;;;7.32;2.78;;;21.50;68.50;;;;;;5042440;28;20025;-50
2021/06/19 02:52:43;;;;;;;12.07;3.13;;;21.50;68.60;;;;;;5055303;28;20036;-50
2021/06/19 02:55:40;;;;;;;10.18;3.20;;;21.50;68.70;;;;;;5054843;28;20456;-50
2021/06/19 02:58:08;;;;;;;7.00;2.58;;;21.50;68.70;;;;;;5013113;28;20084;-50
2021/06/19 03:00:34;;;;;;;11.70;2.88;;;21.50;68.50;;;;;;4999619;28;20257;-50
2021/06/19 03:03:01;;;;;;;8.13;2.50;;;21.50;68.60;;;;;;4993607;28;20117;-50
2021/06/19 03:05:29;;;;;;;8.05;2.97;;;21.50;68.40;;;;;;4993546;28;20034;-50
2021/06/19 03:07:55;;;;;;;9.27;2.92;;;21.50;68.50;;;;;;4992886;28;20026;-50
2021/06/19 03:10:29;;;;;;;7.35;2.83;;;21.50;68.50;;;;;;4992362;28;20026;-50
2021/06/19 03:12:55;;;;;;;7.65;3.08;;;21.50;68.50;;;;;;4993357;28;20037;-50
2021/06/19 03:15:21;;;;;;;10.50;3.30;;;21.50;68.40;;;;;;4993228;28;20366;-50
2021/06/19 03:17:47;;;;;;;9.20;2.85;;;21.50;68.50;;;;;;4992845;28;20069;-50
2021/06/19 03:20:14;;;;;;;10.43;3.40;;;21.50;68.50;;;;;;4992099;28;20034;-50
2021/06/19 03:23:01;;;;;;;12.00;3.15;;;21.50;68.50;;;;;;4993166;28;20129;-50
2021/06/19 03:25:29;;;;;;;7.20;2.88;;;21.50;68.60;;;;;;4993240;28;20029;-50
2021/06/19 03:27:59;;;;;;;5.28;3.10;;;21.40;68.60;;;;;;4992727;28;20454;-50
2021/06/19 03:30:25;;;;;;;6.75;3.42;;;21.40;68.70;;;;;;4991949;28;20457;-50
2021/06/19 03:32:51;;;;;;;7.43;3.03;;;21.40;68.70;;;;;;4992443;28;20037;-50
2021/06/19 03:35:18;;;;;;;10.25;2.88;;;21.40;68.70;;;;;;5028022;28;20124;-50
2021/06/19 03:37:47;;;;;;;8.32;3.17;;;21.40;68.70;;;;;;5034994;28;20032;-50
2021/06/19 03:40:14;;;;;;;10.20;3.20;;;21.40;68.80;;;;;;5033894;28;20124;-50
2021/06/19 03:42:40;;;;;;;10.48;3.70;;;21.40;68.90;;;;;;5034439;28;20024;-50
2021/06/19 03:45:08;;;;;;;8.05;3.08;;;21.40;69.00;;;;;;5034619;28;20448;-50
2021/06/19 03:47:33;;;;;;;11.32;3.38;;;21.40;68.90;;;;;;5034132;28;20443;-50
2021/06/19 03:49:59;;;;;;;4.63;2.72;;;21.40;68.90;;;;;;5034435;28;20021;-50
2021/06/19 03:52:25;;;;;;;10.88;3.03;;;21.40;69.10;;;;;;5033705;28;20025;-50
2021/06/19 03:54:51;;;;;;;8.55;3.33;;;21.40;69.20;;;;;;5034305;28;20029;-50
2021/06/19 03:57:29;;;;;;;5.13;3.05;;;21.40;69.10;;;;;;5034337;28;20033;-50
2021/06/19 03:59:55;;;;;;;9.00;2.60;;;21.40;69.00;;;;;;5041219;28;20523;-50
2021/06/19 04:02:21;;;;;;;7.55;2.90;;;21.40;68.90;;;;;;5053240;28;20029;-50
2021/06/19 04:04:48;;;;;;;6.47;2.88;;;21.40;68.90;;;;;;5054420;28;20040;-50
2021/06/19 04:07:14;;;;;;;5.30;2.70;;;21.40;68.90;;;;;;5053804;28;20054;-50
2021/06/19 04:09:40;;;;;;;5.88;2.72;;;21.40;69.10;;;;;;5053973;28;20103;-50
2021/06/19 04:12:07;;;;;;;11.68;3.40;;;21.40;69.20;;;;;;5052901;28;20051;-50
2021/06/19 04:14:32;;;;;;;12.35;3.35;;;21.40;69.10;;;;;;5053973;28;20025;-50
2021/06/19 04:16:58;;;;;;;6.30;3.13;;;21.40;69.00;;;;;;5053879;28;20040;-50
2021/06/19 04:19:24;;;;;;;9.52;3.17;;;21.40;69.00;;;;;;5053483;28;20470;-50
2021/06/19 04:21:49;;;;;;;5.57;3.03;;;21.40;68.90;;;;;;5052928;28;20142;-50
2021/06/19 04:24:15;;;;;;;12.90;3.58;;;21.40;68.90;;;;;;5054058;28;20051;-50
2021/06/19 04:26:41;;;;;;;8.55;3.05;;;21.40;69.00;;;;;;5051641;28;20468;-50
2021/06/19 04:29:06;;;;;;;9.32;3.63;;;21.30;69.20;;;;;;5053558;28;20112;-50
2021/06/19 04:31:32;;;;;;;4.13;3.00;;;21.40;69.20;;;;;;5052760;28;20534;-50
2021/06/19 04:34:01;;;;;;;12.75;3.28;;;21.40;69.10;;;;;;5053426;28;20028;-50
2021/06/19 04:36:27;;;;;;;9.88;3.42;;;21.40;69.20;;;;;;5051475;28;20037;-50
2021/06/19 04:38:53;;;;;;;13.40;3.30;;;21.40;69.20;;;;;;5053607;28;20060;-50
2021/06/19 04:41:26;;;;;;;10.52;3.00;;;21.30;69.00;;;;;;5052848;28;20051;-50
2021/06/19 04:46:38;;;;;;;7.80;2.55;;;21.30;69.00;;;;;;5031842;28;20412;-50
2021/06/19 04:49:04;;;;;;;7.57;3.25;;;21.30;68.90;;;;;;5052694;28;20025;-50
2021/06/19 04:51:29;;;;;;;7.18;3.22;;;21.40;68.90;;;;;;5052307;28;20036;-50
2021/06/19 04:53:55;;;;;;;13.07;3.00;;;21.40;68.90;;;;;;5053014;28;20448;-49
2021/06/19 04:56:21;;;;;;;11.88;3.40;;;21.30;68.90;;;;;;5052749;28;20460;-50
2021/06/19 04:58:46;;;;;;;14.18;3.45;;;21.30;68.80;;;;;;5051791;28;20440;-50
2021/06/19 05:01:12;;;;;;;7.55;3.65;;;21.30;68.90;;;;;;5052079;28;20029;-50
2021/06/19 05:03:37;;;;;;;10.55;3.40;;;21.30;68.80;;;;;;5052777;28;20017;-50
2021/06/19 05:06:03;;;;;;;10.05;4.05;;;21.30;68.90;;;;;;5052722;28;20067;-50
2021/06/19 05:08:28;;;;;;;12.38;3.65;;;21.30;68.70;;;;;;5052761;28;20021;-50
2021/06/19 05:10:55;;;;;;;9.23;3.15;;;21.30;68.80;;;;;;5037166;28;20080;-50
2021/06/19 05:13:21;;;;;;;8.50;3.33;;;21.30;68.70;;;;;;5033324;28;20037;-50
2021/06/19 05:15:47;;;;;;;8.02;2.88;;;21.30;68.70;;;;;;5033067;28;20356;-50
2021/06/19 05:18:12;;;;;;;6.32;2.95;;;21.30;68.80;;;;;;5032644;28;20025;-50
2021/06/19 05:20:38;;;;;;;8.65;3.60;;;21.30;68.80;;;;;;5031776;28;20487;-50
2021/06/19 05:23:09;;;;;;;7.75;2.90;;;21.30;68.80;;;;;;5033020;28;20104;-50
2021/06/19 05:25:36;;;;;;;6.45;3.10;;;21.40;69.00;;;;;;5031169;28;20053;-50
2021/06/19 05:28:02;;;;;;;6.88;2.60;;;21.40;69.00;;;;;;5032808;28;20033;-50
2021/06/19 05:30:28;;;;;;;13.70;3.20;;;21.30;69.10;;;;;;5032146;28;20407;-50
2021/06/19 05:32:53;;;;;;;8.60;3.45;;;21.30;69.20;;;;;;5033021;28;20036;-50
2021/06/19 05:35:19;;;;;;;9.77;3.15;;;21.30;69.10;;;;;;5032767;28;20029;-51
2021/06/19 05:37:45;;;;;;;6.30;2.75;;;21.30;69.10;;;;;;5032959;28;20432;-50
2021/06/19 05:40:11;;;;;;;3.42;2.67;;;21.30;69.00;;;;;;5031900;28;20029;-50
2021/06/19 05:42:37;;;;;;;9.13;3.22;;;21.30;69.10;;;;;;5032618;28;20033;-50
2021/06/19 05:45:03;;;;;;;8.50;3.88;;;21.30;69.10;;;;;;5032654;28;20449;-50
2021/06/19 05:47:29;;;;;;;10.23;3.22;;;21.30;69.20;;;;;;5032023;28;20109;-50
2021/06/19 05:49:54;;;;;;;9.85;3.40;;;21.30;69.10;;;;;;5031649;28;20026;-50
2021/06/19 05:52:22;;;;;;;10.18;3.70;;;21.40;69.20;;;;;;5030671;28;20360;-50
2021/06/19 05:54:48;;;;;;;4.20;2.88;;;21.40;69.10;;;;;;5031420;28;20022;-50
2021/06/19 05:57:13;;;;;;;5.93;3.50;;;21.40;69.10;;;;;;5030076;28;20033;-50
2021/06/19 05:59:39;;;;;;;17.50;4.10;;;21.40;69.10;;;;;;5036775;28;20032;-50
2021/06/19 06:02:05;;;;;;;6.70;3.97;;;21.40;69.10;;;;;;5051197;28;20021;-50
2021/06/19 06:04:31;;;;;;;10.05;3.85;;;21.40;69.10;;;;;;5054848;28;20179;-50
2021/06/19 06:06:57;;;;;;;10.00;3.53;;;21.40;69.10;;;;;;5056244;28;20029;-50
2021/06/19 06:09:23;;;;;;;8.82;4.32;;;21.40;69.20;;;;;;5056558;28;20035;-50
2021/06/19 06:11:48;;;;;;;15.70;3.17;;;21.50;69.30;;;;;;5055373;28;20052;-50
2021/06/19 06:14:14;;;;;;;10.00;3.85;;;21.40;69.60;;;;;;5056152;28;20052;-51
2021/06/19 06:16:40;;;;;;;8.80;2.78;;;21.40;69.30;;;;;;5055853;28;20033;-51
2021/06/19 06:19:06;;;;;;;8.52;4.15;;;21.50;69.30;;;;;;5055773;28;20052;-51
2021/06/19 06:21:31;;;;;;;16.77;4.75;;;21.50;69.30;;;;;;5055257;28;20025;-51
2021/06/19 06:23:57;;;;;;;10.38;4.03;;;21.50;69.30;;;;;;5056069;28;20035;-51
2021/06/19 06:26:22;;;;;;;9.77;3.55;;;21.50;69.30;;;;;;5056348;28;20022;-50
2021/06/19 06:28:48;;;;;;;12.10;3.38;;;21.50;69.40;;;;;;5055752;28;20029;-50
2021/06/19 06:31:14;;;;;;;9.75;3.33;;;21.50;69.40;;;;;;5055065;28;20036;-51
2021/06/19 06:33:39;;;;;;;7.88;3.55;;;21.50;69.40;;;;;;5055340;28;20546;-50
2021/06/19 06:36:05;;;;;;;13.60;3.50;;;21.50;69.50;;;;;;5056086;28;20059;-51
2021/06/19 06:38:31;;;;;;;11.00;3.40;;;21.50;69.50;;;;;;5055582;28;20487;-50
2021/06/19 06:40:56;;;;;;;13.98;4.38;;;21.50;69.50;;;;;;5054922;28;20055;-50
2021/06/19 06:43:22;;;;;;;17.60;3.65;;;21.50;69.50;;;;;;5055523;28;20420;-50
2021/06/19 06:45:48;;;;;;;10.85;3.92;;;21.50;70.40;;;;;;5055702;28;20107;-50
2021/06/19 06:48:14;;;;;;;13.48;3.78;;;21.50;69.70;;;;;;5055235;28;20029;-50
2021/06/19 06:50:40;;;;;;;6.40;3.30;;;21.60;69.70;;;;;;5054833;28;20033;-50
2021/06/19 06:53:06;;;;;;;18.70;4.07;;;21.60;69.60;;;;;;5053888;28;20438;-51
2021/06/19 06:55:31;;;;;;;11.98;3.88;;;21.60;69.50;;;;;;5055815;28;20029;-51
2021/06/19 06:57:57;;;;;;;14.25;3.75;;;21.60;69.60;;;;;;5054063;28;20049;-50
2021/06/19 07:00:23;;;;;;;12.68;4.22;;;21.60;69.60;;;;;;5054562;28;20675;-51
2021/06/19 07:02:49;;;;;;;12.43;3.83;;;21.60;69.80;;;;;;5055296;28;20102;-51
2021/06/19 07:05:15;;;;;;;14.80;4.65;;;21.70;69.80;;;;;;5055025;28;20021;-51
2021/06/19 07:07:41;;;;;;;10.88;4.40;;;21.60;69.70;;;;;;5055240;28;20059;-51
2021/06/19 07:10:12;;;;;;;15.85;4.47;;;21.60;69.70;;;;;;5054736;28;20352;-51
2021/06/19 07:12:42;;;;;;;12.93;4.20;;;21.60;69.80;;;;;;5055026;28;20123;-51
2021/06/19 07:15:08;;;;;;;6.68;4.25;;;21.60;69.70;;;;;;5054410;28;20033;-51
2021/06/19 07:17:34;;;;;;;13.02;4.78;;;21.70;69.90;;;;;;5054382;28;20120;-51
2021/06/19 07:20:02;;;;;;;9.02;3.53;;;21.70;70.00;;;;;;5054785;28;20140;-51
2021/06/19 07:22:27;;;;;;;13.70;4.40;;;21.70;69.90;;;;;;5054440;28;20021;-51
2021/06/19 07:24:53;;;;;;;12.02;3.72;;;21.70;69.90;;;;;;5054671;28;20029;-51
2021/06/19 07:27:19;;;;;;;11.63;4.68;;;21.70;70.00;;;;;;5054982;28;20096;-51
2021/06/19 07:29:44;;;;;;;8.48;3.78;;;21.70;70.00;;;;;;5054894;28;20040;-51
2021/06/19 07:32:10;;;;;;;13.43;4.65;;;21.70;70.00;;;;;;5053756;28;20044;-51
2021/06/19 07:34:36;;;;;;;9.90;3.75;;;21.80;70.00;;;;;;5054947;28;20025;-51
2021/06/19 07:37:01;;;;;;;14.15;4.28;;;21.70;70.00;;;;;;5054716;28;20094;-51
2021/06/19 07:39:27;;;;;;;10.02;4.22;;;21.80;70.40;;;;;;5054518;28;20029;-51
2021/06/19 07:41:52;;;;;;;15.40;4.53;;;21.80;70.20;;;;;;5053580;28;20025;-51
2021/06/19 07:44:18;;;;;;;14.50;4.22;;;21.80;70.20;;;;;;5054561;28;20761;-51
2021/06/19 07:46:46;;;;;;;7.15;4.20;;;21.70;70.20;;;;;;5054489;28;20352;-51
2021/06/19 07:49:13;;;;;;;12.13;5.10;;;21.80;70.10;;;;;;5054215;28;20158;-51
2021/06/19 07:51:39;;;;;;;9.32;4.40;;;21.80;70.40;;;;;;5053618;28;20040;-51
2021/06/19 07:54:05;;;;;;;8.45;3.95;;;21.80;70.40;;;;;;5054359;28;20359;-51
2021/06/19 07:56:30;;;;;;;9.75;3.83;;;21.80;70.20;;;;;;5052507;28;20498;-51
2021/06/19 07:58:56;;;;;;;14.55;3.90;;;21.80;70.20;;;;;;5053923;28;20017;-51
2021/06/19 08:01:21;;;;;;;11.95;4.70;;;21.80;71.20;;;;;;5053251;28;20094;-51
2021/06/19 08:03:47;;;;;;;14.23;5.35;;;21.80;70.60;;;;;;5053903;28;20043;-51
2021/06/19 08:06:13;;;;;;;11.75;4.20;;;21.90;70.30;;;;;;5054012;28;20024;-51
2021/06/19 08:08:39;;;;;;;12.93;5.25;;;21.90;70.20;;;;;;5053276;28;20071;-51
2021/06/19 08:11:04;;;;;;;13.20;4.82;;;21.90;70.00;;;;;;5053420;28;20032;-51
2021/06/19 08:13:30;;;;;;;15.05;4.93;;;21.90;70.50;;;;;;5053961;28;20017;-51
2021/06/19 08:15:57;;;;;;;12.85;4.90;;;21.90;70.10;;;;;;5053615;28;20029;-51
2021/06/19 08:18:23;;;;;;;14.02;4.95;;;21.90;70.20;;;;;;5053905;28;20025;-51
2021/06/19 08:20:49;;;;;;;9.82;4.38;;;21.90;70.10;;;;;;5052464;28;20406;-51
2021/06/19 08:23:14;;;;;;;7.78;4.22;;;21.90;70.10;;;;;;5053391;28;20031;-51
2021/06/19 08:25:41;;;;;;;9.60;4.28;;;21.90;70.10;;;;;;5053839;28;20351;-51
2021/06/19 08:28:06;;;;;;;9.30;4.28;;;21.90;70.00;;;;;;5052015;28;20116;-51
2021/06/19 08:30:32;;;;;;;7.07;4.20;;;21.90;70.00;;;;;;5052868;28;20120;-51
2021/06/19 08:32:58;;;;;;;14.63;4.85;;;21.90;70.10;;;;;;5053675;28;20029;-51
2021/06/19 08:35:23;;;;;;;13.40;4.57;;;21.90;70.00;;;;;;5053316;28;20337;-51
2021/06/19 08:37:49;;;;;;;7.65;4.07;;;22.00;69.90;;;;;;5053101;28;20094;-51
2021/06/19 08:40:15;;;;;;;12.88;4.43;;;22.00;70.00;;;;;;5052893;28;20363;-51
2021/06/19 08:42:41;;;;;;;7.78;4.45;;;22.00;70.20;;;;;;5052073;28;20055;-51
2021/06/19 08:45:08;;;;;;;12.07;4.63;;;22.00;70.20;;;;;;5052960;28;20592;-51
2021/06/19 08:47:35;;;;;;;15.18;5.40;;;22.00;69.90;;;;;;5053455;28;20029;-51
2021/06/19 08:50:10;;;;;;;16.30;5.35;;;22.00;69.90;;;;;;5052807;28;20399;-51
2021/06/19 08:52:36;;;;;;;15.43;5.05;;;22.00;69.80;;;;;;5052332;28;20037;-51
2021/06/19 08:55:08;;;;;;;8.77;4.88;;;22.00;70.00;;;;;;5053126;28;20025;-51
2021/06/19 08:57:34;;;;;;;15.40;5.03;;;22.00;70.00;;;;;;5053323;28;20025;-51
2021/06/19 09:00:00;;;;;;;18.10;4.57;;;22.00;70.00;;;;;;5052738;28;20078;-51
2021/06/19 09:02:27;;;;;;;13.55;5.22;;;22.00;69.90;;;;;;5052677;28;20443;-51
2021/06/19 09:04:58;;;;;;;19.70;5.15;;;22.00;69.90;;;;;;5053054;28;20056;-51
2021/06/19 09:07:45;;;;;;;12.75;5.10;;;22.00;69.80;;;;;;5053155;28;20017;-50
2021/06/19 09:10:32;;;;;;;15.20;4.57;;;22.00;69.90;;;;;;5052082;28;20025;-50
2021/06/19 09:13:14;;;;;;;11.32;4.65;;;22.50;71.20;;;;;;5053114;28;20040;-51
2021/06/19 09:15:49;;;;;;;15.02;4.93;;;22.90;72.00;;;;;;5052801;28;20017;-51
2021/06/19 09:18:15;;;;;;;12.70;4.28;;;23.00;71.90;;;;;;5052895;28;20106;-50
2021/06/19 09:20:49;;;;;;;9.65;4.15;;;23.10;72.70;;;;;;5051467;28;20471;-50
2021/06/19 09:23:17;;;;;;;16.05;4.30;;;23.10;73.10;;;;;;5053212;28;20082;-51
2021/06/19 09:25:43;;;;;;;9.88;3.97;;;23.10;73.30;;;;;;5052651;28;20116;-51
2021/06/19 09:28:10;;;;;;;14.27;6.13;;;23.20;73.00;;;;;;5050693;28;20056;-52
2021/06/19 09:30:37;;;;;;;14.55;5.15;;;23.10;72.70;;;;;;5040822;28;20038;-50
2021/06/19 09:33:07;;;;;;;14.35;4.78;;;23.10;72.50;;;;;;5042345;28;20052;-50
2021/06/19 09:35:36;;;;;;;9.50;4.40;;;23.10;72.30;;;;;;5041090;28;20021;-50
2021/06/19 09:38:09;;;;;;;9.27;3.83;;;23.10;71.80;;;;;;5040246;28;20268;-50
2021/06/19 09:40:40;;;;;;;7.97;4.50;;;23.20;71.00;;;;;;5036177;28;20040;-50
2021/06/19 09:43:10;;;;;;;16.35;5.43;;;23.20;71.40;;;;;;5036720;28;20029;-50
2021/06/19 09:45:36;;;;;;;;;;;23.40;71.90;;;;;;5037195;28;20159;-50
2021/06/19 09:48:03;;;;;;;14.68;4.80;;;23.40;71.80;;;;;;5036665;28;19905;-50
2021/06/19 09:50:29;;;;;;;8.05;3.70;;;23.40;72.30;;;;;;5035486;28;20364;-50
2021/06/19 09:52:55;;;;;;;12.55;4.45;;;23.30;71.80;;;;;;5036680;28;20029;-50
2021/06/19 09:55:21;;;;;;;10.93;4.63;;;23.30;72.00;;;;;;5036370;28;20025;-50
2021/06/19 09:57:48;;;;;;;10.88;5.07;;;23.30;71.50;;;;;;5036708;28;20041;-51
2021/06/19 10:00:20;;;;;;;13.20;4.60;;;23.30;71.70;;;;;;5045514;28;20092;-50
2021/06/19 10:02:46;;;;;;;7.60;4.60;;;23.40;71.80;;;;;;5056875;28;20075;-50
2021/06/19 10:05:13;;;;;;;8.02;4.13;;;23.40;72.10;;;;;;5056311;28;20036;-50
2021/06/19 10:07:39;;;;;;;24.70;5.20;;;23.50;72.60;;;;;;5056271;28;20029;-50
2021/06/19 10:10:12;;;;;;;12.65;4.88;;;23.50;72.00;;;;;;5055495;28;20360;-50
2021/06/19 10:12:39;;;;;;;14.05;5.22;;;23.40;72.20;;;;;;5056388;28;20033;-55
2021/06/19 10:15:08;;;;;;;6.32;3.85;;;23.40;72.20;;;;;;5056167;28;20353;-56
2021/06/19 10:17:37;;;;;;;12.13;3.67;;;23.60;72.70;;;;;;5056022;28;20084;-56
2021/06/19 10:20:06;;;;;;;8.25;4.18;;;23.70;73.40;;;;;;5055407;28;20129;-56
2021/06/19 10:22:34;;;;;;;9.70;4.53;;;23.80;72.30;;;;;;5049311;28;20050;-56
2021/06/19 10:25:06;;;;;;;7.15;4.65;;;23.80;72.60;;;;;;5044137;28;20099;-56
2021/06/19 10:27:35;;;;;;;14.85;4.60;;;23.70;72.90;;;;;;5045199;28;20490;-56
2021/06/19 10:30:03;;;;;;;12.07;5.07;;;23.80;72.20;;;;;;5046489;28;20037;-56
2021/06/19 10:32:47;;;;;;;10.23;4.20;;;23.70;72.20;;;;;;5044974;28;20349;-57
2021/06/19 10:35:18;;;;;;;10.93;4.53;;;23.60;71.90;;;;;;5045014;28;20460;-56
2021/06/19 10:37:45;;;;;;;8.98;3.83;;;23.60;72.10;;;;;;5044188;28;20018;-57
2021/06/19 10:40:26;;;;;;;9.90;4.88;;;23.90;73.90;;;;;;5044157;28;20017;-56
2021/06/19 10:42:54;;;;;;;12.52;4.55;;;23.90;72.20;;;;;;5045887;28;20029;-56
2021/06/19 10:45:32;;;;;;;12.70;5.03;;;23.80;72.00;;;;;;5044082;28;20025;-56
2021/06/19 10:48:01;;;;;;;11.10;4.13;;;23.70;71.90;;;;;;5046569;28;20032;-56
2021/06/19 10:50:27;;;;;;;13.73;4.43;;;23.70;72.00;;;;;;5038919;28;20112;-56
2021/06/19 10:53:14;;;;;;;9.18;4.07;;;23.70;71.70;;;;;;5042503;28;20037;-56
2021/06/19 10:55:42;;;;;;;21.80;4.78;;;23.70;71.60;;;;;;5050923;28;20029;-56
2021/06/19 10:58:22;;;;;;;17.13;4.13;;;23.60;71.80;;;;;;5046471;28;20029;-56
2021/06/19 11:00:59;;;;;;;7.88;4.00;;;23.70;71.70;;;;;;5044279;28;20100;-56
2021/06/19 11:03:43;;;;;;;16.75;5.05;;;24.00;73.00;;;;;;5045226;28;20060;-57
2021/06/19 11:06:36;;;;;;;18.30;4.80;;;23.90;73.00;;;;;;5048253;28;20036;-56
2021/06/19 11:09:02;;;;;;;13.32;4.75;;;23.80;72.00;;;;;;5041246;28;20112;-56
2021/06/19 11:11:50;;;;;;;14.02;4.60;;;23.70;72.80;;;;;;5043071;28;20116;-56
2021/06/19 11:14:41;;;;;;;10.32;5.03;;;23.70;73.90;;;;;;5045019;28;20056;-56
2021/06/19 11:17:30;;;;;;;7.65;5.25;;;23.70;73.40;;;;;;5039418;28;20476;-56
2021/06/19 11:20:05;;;;;;;14.30;4.88;;;23.80;73.20;;;;;;5047203;28;20025;-57
2021/06/19 11:22:34;;;;;;;13.77;4.88;;;23.90;73.00;;;;;;5037556;28;20107;-57
2021/06/19 11:28:05;;;;;;;13.68;4.70;;;23.80;72.10;;;;;;5037732;28;20029;-57
2021/06/19 11:30:33;;;;;;;8.60;4.15;;;23.90;71.50;;;;;;5040421;28;20041;-57
2021/06/19 11:33:39;;;;;;;11.85;3.55;;;24.00;72.30;;;;;;5045671;28;20028;-57
2021/06/19 11:36:04;;;;;;;12.65;4.90;;;24.00;72.00;;;;;;5057461;28;20032;-56
2021/06/19 11:38:52;;;;;;;9.77;4.70;;;24.30;72.90;;;;;;5043102;28;20029;-57
2021/06/19 11:41:21;;;;;;;9.07;4.70;;;24.00;71.20;;;;;;5044831;28;20086;-57
2021/06/19 11:43:47;;;;;;;7.43;4.22;;;24.00;71.70;;;;;;5041835;28;20071;-57
2021/06/19 11:46:14;;;;;;;13.35;4.75;;;24.20;74.30;;;;;;5046511;28;20033;-56
2021/06/19 11:48:56;;;;;;;11.50;4.80;;;24.10;72.30;;;;;;5048101;28;20026;-54
2021/06/19 11:51:24;;;;;;;18.50;4.65;;;24.00;71.40;;;;;;5045572;28;20083;-55
2021/06/19 11:53:50;;;;;;;9.98;4.18;;;24.00;71.30;;;;;;5043871;28;20152;-55
2021/06/19 11:56:26;;;;;;;14.50;5.63;;;;;;;;;;5041634;28;20549;-54
2021/06/19 11:58:55;;;;;;;8.45;4.70;;;;;;;;;;5042404;28;20431;-55
2021/06/19 12:01:24;;;;;;;11.75;5.07;;;;;;;;;;5042127;28;20037;-55
2021/06/19 12:03:50;;;;;;;13.98;4.95;;;;;;;;;;5049927;28;20032;-54
2021/06/19 12:06:16;;;;;;;11.10;5.35;;;;;;;;;;5042629;28;20055;-54
2021/06/19 12:08:43;;;;;;;10.32;4.70;;;;;;;;;;5049414;28;20176;-54
2021/06/19 12:11:09;;;;;;;10.10;4.50;;;;;;;;;;5052963;28;20074;-54
2021/06/19 12:13:40;;;;;;;9.35;4.43;;;;;;;;;;5054018;28;20468;-54
2021/06/19 12:16:07;;;;;;;19.65;4.72;;;;;;;;;;5054077;28;20025;-54
2021/06/19 12:18:33;;;;;;;8.95;4.25;;;;;;;;;;5053396;28;20067;-54
2021/06/19 12:21:05;;;;;;;13.05;4.45;;;;;;;;;;5052805;28;20031;-54
2021/06/19 12:23:39;;;;;;;13.45;4.93;;;;;;;;;;5053366;28;20455;-54
2021/06/19 12:26:07;;;;;;;8.43;4.30;;;;;;;;;;5053697;28;20017;-54
2021/06/19 12:28:33;;;;;;;23.20;5.50;;;;;;;;;;5053660;28;20029;-54
2021/06/19 12:31:00;;;;;;;16.05;4.80;;;;;;;;;;5052595;28;20032;-54
2021/06/19 12:33:26;;;;;;;12.52;3.65;;;;;;;;;;5053770;28;20021;-54
2021/06/19 12:35:52;;;;;;;13.13;4.72;;;;;;;;;;5052983;28;20441;-54
2021/06/19 12:38:19;;;;;;;11.15;4.65;;;;;;;;;;5053099;28;20064;-54
2021/06/19 12:40:45;;;;;;;17.30;4.18;;;;;;;;;;5052923;28;20017;-54
2021/06/19 12:43:11;;;;;;;7.90;4.53;;;;;;;;;;5053312;28;20450;-54
2021/06/19 12:45:40;;;;;;;7.35;4.00;;;;;;;;;;5053574;28;20394;-54
2021/06/19 12:48:17;;;;;;;16.08;4.75;;;;;;;;;;5053226;28;20090;-54
2021/06/19 12:50:43;;;;;;;24.10;5.07;;;;;;;;;;5052262;28;20041;-54
2021/06/19 12:53:12;;;;;;;15.02;4.50;;;;;;;;;;5053269;28;20028;-54
2021/06/19 12:55:39;;;;;;;16.25;4.68;;;;;;;;;;5053351;28;20098;-54
2021/06/19 12:58:18;;;;;;;6.25;3.88;;;;;;;;;;5053359;28;20025;-54
2021/06/19 13:00:46;;;;;;;15.27;4.90;;;;;;;;;;5052450;28;20025;-55